createdAt,value
2016-05-31T00:00:53.658Z,0
2016-05-31T00:01:53.724Z,0
2016-05-31T00:02:53.773Z,0
2016-05-31T00:03:53.666Z,0
2016-05-31T00:04:53.700Z,0
2016-05-31T00:05:53.938Z,0
2016-05-31T00:06:53.987Z,0
2016-05-31T00:07:54.005Z,0
2016-05-31T00:08:54.086Z,0
2016-05-31T00:09:54.152Z,0
2016-05-31T00:10:54.169Z,0
2016-05-31T00:11:54.266Z,0
2016-05-31T00:12:54.268Z,0
2016-05-31T00:13:54.334Z,0
2016-05-31T00:14:54.430Z,0
2016-05-31T00:15:54.433Z,0
2016-05-31T00:16:54.342Z,0
2016-05-31T00:17:54.422Z,0
2016-05-31T00:18:54.629Z,0
2016-05-31T00:19:54.507Z,0
2016-05-31T00:20:54.743Z,0
2016-05-31T00:21:54.792Z,0
2016-05-31T00:22:55.123Z,0
2016-05-31T00:23:54.750Z,0
2016-05-31T00:24:54.926Z,0
2016-05-31T00:25:55.006Z,0
2016-05-31T00:26:54.884Z,0
2016-05-31T00:27:54.918Z,0
2016-05-31T00:28:55.000Z,0
2016-05-31T00:29:55.033Z,0
2016-05-31T00:30:55.255Z,0
2016-05-31T00:31:55.335Z,0
2016-05-31T00:32:55.369Z,0
2016-05-31T00:33:55.247Z,0
2016-05-31T00:34:55.500Z,0
2016-05-31T00:35:55.533Z,0
2016-05-31T00:36:55.411Z,0
2016-05-31T00:37:56.054Z,0
2016-05-31T00:38:55.511Z,0
2016-05-31T00:39:55.763Z,0
2016-05-31T00:40:55.656Z,0
2016-05-31T00:41:55.831Z,0
2016-05-31T00:42:55.740Z,0
2016-05-31T00:43:55.977Z,0
2016-05-31T00:44:55.839Z,0
2016-05-31T00:45:56.045Z,0
2016-05-31T00:46:56.126Z,0
2016-05-31T00:47:55.988Z,0
2016-05-31T00:48:56.038Z,0
2016-05-31T00:49:56.290Z,0
2016-05-31T00:50:56.323Z,0
2016-05-31T00:51:56.405Z,0
2016-05-31T00:52:56.282Z,0
2016-05-31T00:53:56.457Z,0
2016-05-31T00:54:56.553Z,0
2016-05-31T00:55:56.572Z,0
2016-05-31T00:56:56.622Z,0
2016-05-31T00:57:56.561Z,0
2016-05-31T00:58:56.798Z,0
2016-05-31T00:59:56.786Z,0
2016-05-31T01:00:56.897Z,0
2016-05-31T01:01:56.775Z,0
2016-05-31T01:02:56.981Z,0
2016-05-31T01:03:57.000Z,0
2016-05-31T01:04:57.064Z,0
2016-05-31T01:05:57.146Z,0
2016-05-31T01:06:57.008Z,0
2016-05-31T01:07:57.729Z,0
2016-05-31T01:08:57.294Z,0
2016-05-31T01:09:57.328Z,0
2016-05-31T01:10:57.221Z,0
2016-05-31T01:11:57.458Z,0
2016-05-31T01:12:57.508Z,0
2016-05-31T01:13:57.370Z,0
2016-05-31T01:14:57.607Z,0
2016-05-31T01:15:57.673Z,0
2016-05-31T01:16:57.675Z,0
2016-05-31T01:17:57.740Z,0
2016-05-31T01:18:57.837Z,0
2016-05-31T01:19:57.854Z,0
2016-05-31T01:20:57.764Z,0
2016-05-31T01:21:57.845Z,0
2016-05-31T01:22:58.159Z,0
2016-05-31T01:23:58.148Z,0
2016-05-31T01:24:58.056Z,0
2016-05-31T01:25:58.418Z,0
2016-05-31T01:26:58.264Z,0
2016-05-31T01:27:58.158Z,0
2016-05-31T01:28:58.192Z,0
2016-05-31T01:29:58.461Z,0
2016-05-31T01:30:58.447Z,0
2016-05-31T01:31:58.512Z,0
2016-05-31T01:32:58.577Z,0
2016-05-31T01:33:58.456Z,0
2016-05-31T01:34:58.645Z,0
2016-05-31T01:35:58.444Z,0
2016-05-31T01:36:58.776Z,0
2016-05-31T01:37:59.200Z,0
2016-05-31T01:38:58.735Z,0
2016-05-31T01:39:58.799Z,0
2016-05-31T01:40:58.833Z,0
2016-05-31T01:41:59.038Z,0
2016-05-31T01:42:58.916Z,0
2016-05-31T01:43:59.169Z,0
2016-05-31T01:44:59.204Z,0
2016-05-31T01:45:59.237Z,0
2016-05-31T01:46:59.334Z,0
2016-05-31T01:47:59.384Z,0
2016-05-31T01:48:59.402Z,0
2016-05-31T01:49:59.342Z,0
2016-05-31T01:50:59.548Z,0
2016-05-31T01:51:59.551Z,0
2016-05-31T01:52:59.850Z,0
2016-05-31T01:53:59.681Z,0
2016-05-31T01:54:59.762Z,0
2016-05-31T01:55:59.827Z,0
2016-05-31T01:56:59.673Z,0
2016-05-31T01:57:59.895Z,0
2016-05-31T01:58:59.866Z,0
2016-05-31T01:59:59.994Z,0
2016-05-31T02:01:00.044Z,0
2016-05-31T02:02:00.140Z,0
2016-05-31T02:03:00.017Z,0
2016-05-31T02:04:00.208Z,0
2016-05-31T02:05:00.304Z,0
2016-05-31T02:06:00.354Z,0
2016-05-31T02:07:00.231Z,0
2016-05-31T02:08:00.733Z,0
2016-05-31T02:09:00.299Z,0
2016-05-31T02:10:00.568Z,0
2016-05-31T02:11:00.586Z,0
2016-05-31T02:12:00.620Z,0
2016-05-31T02:13:00.701Z,0
2016-05-31T02:14:00.750Z,0
2016-05-31T02:15:00.816Z,0
2016-05-31T02:16:00.849Z,0
2016-05-31T02:17:00.883Z,0
2016-05-31T02:18:00.996Z,0
2016-05-31T02:19:01.030Z,0
2016-05-31T02:20:00.923Z,0
2016-05-31T02:21:01.129Z,0
2016-05-31T02:22:01.178Z,0
2016-05-31T02:23:01.556Z,0
2016-05-31T02:24:01.121Z,0
2016-05-31T02:25:01.202Z,0
2016-05-31T02:26:01.268Z,0
2016-05-31T02:27:01.442Z,0
2016-05-31T02:28:01.492Z,0
2016-05-31T02:29:01.432Z,0
2016-05-31T02:30:01.590Z,0
2016-05-31T02:31:01.359Z,0
2016-05-31T02:32:01.580Z,0
2016-05-31T02:33:01.786Z,0
2016-05-31T02:34:01.820Z,0
2016-05-31T02:35:01.854Z,0
2016-05-31T02:36:01.919Z,0
2016-05-31T02:37:02.000Z,0
2016-05-31T02:38:03.408Z,0
2016-05-31T02:39:01.911Z,0
2016-05-31T02:40:02.008Z,0
2016-05-31T02:41:02.197Z,0
2016-05-31T02:42:02.247Z,0
2016-05-31T02:43:02.157Z,0
2016-05-31T02:44:02.363Z,0
2016-05-31T02:45:02.083Z,0
2016-05-31T02:46:02.321Z,0
2016-05-31T02:47:02.510Z,0
2016-05-31T02:48:02.591Z,0
2016-05-31T02:49:02.657Z,0
2016-05-31T02:50:02.691Z,0
2016-05-31T02:51:02.757Z,0
2016-05-31T02:52:02.649Z,0
2016-05-31T02:53:04.184Z,0
2016-05-31T02:54:02.889Z,0
2016-05-31T02:55:02.985Z,0
2016-05-31T02:56:03.020Z,0
2016-05-31T02:57:03.070Z,0
2016-05-31T02:58:02.993Z,0
2016-05-31T02:59:03.231Z,0
2016-05-31T03:00:03.217Z,0
2016-05-31T03:01:03.299Z,0
2016-05-31T03:02:03.333Z,0
2016-05-31T03:03:03.382Z,0
2016-05-31T03:04:03.447Z,0
2016-05-31T03:05:03.497Z,0
2016-05-31T03:06:03.547Z,0
2016-05-31T03:07:03.611Z,0
2016-05-31T03:08:04.100Z,0
2016-05-31T03:09:03.695Z,0
2016-05-31T03:10:03.776Z,0
2016-05-31T03:11:03.497Z,0
2016-05-31T03:12:03.874Z,0
2016-05-31T03:13:03.925Z,0
2016-05-31T03:14:03.958Z,0
2016-05-31T03:15:04.039Z,0
2016-05-31T03:16:03.949Z,0
2016-05-31T03:17:04.138Z,0
2016-05-31T03:18:04.032Z,0
2016-05-31T03:19:04.254Z,0
2016-05-31T03:20:04.302Z,0
2016-05-31T03:21:04.337Z,0
2016-05-31T03:22:04.418Z,0
2016-05-31T03:23:04.327Z,0
2016-05-31T03:24:04.517Z,0
2016-05-31T03:25:04.395Z,0
2016-05-31T03:26:04.616Z,0
2016-05-31T03:27:04.696Z,0
2016-05-31T03:28:04.714Z,0
2016-05-31T03:29:04.765Z,0
2016-05-31T03:30:04.829Z,0
2016-05-31T03:31:04.895Z,0
2016-05-31T03:32:04.945Z,0
2016-05-31T03:33:05.025Z,0
2016-05-31T03:34:05.059Z,0
2016-05-31T03:35:05.093Z,0
2016-05-31T03:36:05.159Z,0
2016-05-31T03:37:05.208Z,0
2016-05-31T03:38:05.523Z,0
2016-05-31T03:39:05.151Z,0
2016-05-31T03:40:05.356Z,0
2016-05-31T03:41:05.422Z,0
2016-05-31T03:42:05.471Z,0
2016-05-31T03:43:05.505Z,0
2016-05-31T03:44:05.414Z,0
2016-05-31T03:45:05.619Z,0
2016-05-31T03:46:05.670Z,0
2016-05-31T03:47:05.735Z,0
2016-05-31T03:48:05.627Z,0
2016-05-31T03:49:05.819Z,0
2016-05-31T03:50:05.743Z,0
2016-05-31T03:51:05.760Z,0
2016-05-31T03:52:05.999Z,0
2016-05-31T03:53:06.079Z,0
2016-05-31T03:54:06.098Z,0
2016-05-31T03:55:06.147Z,0
2016-05-31T03:56:06.056Z,0
2016-05-31T03:57:06.231Z,0
2016-05-31T03:58:06.296Z,0
2016-05-31T03:59:06.423Z,0
2016-05-31T04:00:06.254Z,0
2016-05-31T04:01:06.303Z,0
2016-05-31T04:02:06.526Z,0
2016-05-31T04:03:06.590Z,0
2016-05-31T04:04:06.639Z,0
2016-05-31T04:05:06.674Z,0
2016-05-31T04:06:06.739Z,0
2016-05-31T04:07:06.803Z,0
2016-05-31T04:08:06.697Z,0
2016-05-31T04:09:06.889Z,0
2016-05-31T04:10:06.969Z,0
2016-05-31T04:11:06.971Z,0
2016-05-31T04:12:07.053Z,0
2016-05-31T04:13:07.117Z,0
2016-05-31T04:14:06.994Z,0
2016-05-31T04:15:07.060Z,0
2016-05-31T04:16:07.266Z,0
2016-05-31T04:17:07.160Z,0
2016-05-31T04:18:07.396Z,0
2016-05-31T04:19:07.415Z,0
2016-05-31T04:20:07.324Z,0
2016-05-31T04:21:07.529Z,0
2016-05-31T04:22:07.438Z,0
2016-05-31T04:23:07.535Z,0
2016-05-31T04:24:07.710Z,0
2016-05-31T04:25:07.743Z,0
2016-05-31T04:26:07.637Z,0
2016-05-31T04:27:07.718Z,0
2016-05-31T04:28:07.735Z,0
2016-05-31T04:29:07.972Z,0
2016-05-31T04:30:08.022Z,0
2016-05-31T04:31:08.073Z,0
2016-05-31T04:32:07.809Z,0
2016-05-31T04:33:08.045Z,0
2016-05-31T04:34:08.206Z,0
2016-05-31T04:35:08.286Z,0
2016-05-31T04:36:08.194Z,0
2016-05-31T04:37:08.385Z,0
2016-05-31T04:38:09.278Z,0
2016-05-31T04:39:08.515Z,0
2016-05-31T04:40:08.392Z,4
2016-05-31T04:41:08.584Z,0
2016-05-31T04:42:08.664Z,0
2016-05-31T04:43:08.697Z,0
2016-05-31T04:44:08.747Z,4
2016-05-31T04:45:08.672Z,4
2016-05-31T04:46:08.847Z,4
2016-05-31T04:47:08.927Z,4
2016-05-31T04:48:08.993Z,0
2016-05-31T04:49:08.902Z,0
2016-05-31T04:50:08.935Z,0
2016-05-31T04:51:09.141Z,0
2016-05-31T04:52:09.191Z,0
2016-05-31T04:53:09.444Z,0
2016-05-31T04:54:09.149Z,0
2016-05-31T04:55:09.199Z,0
2016-05-31T04:56:09.420Z,0
2016-05-31T04:57:09.313Z,0
2016-05-31T04:58:09.504Z,0
2016-05-31T04:59:09.443Z,0
2016-05-31T05:00:09.635Z,0
2016-05-31T05:01:09.668Z,0
2016-05-31T05:02:09.717Z,0
2016-05-31T05:03:09.455Z,0
2016-05-31T05:04:09.676Z,0
2016-05-31T05:05:09.867Z,4
2016-05-31T05:06:09.962Z,4
2016-05-31T05:07:09.982Z,4
2016-05-31T05:08:10.203Z,4
2016-05-31T05:09:09.924Z,4
2016-05-31T05:10:10.145Z,4
2016-05-31T05:11:10.210Z,4
2016-05-31T05:12:10.089Z,4
2016-05-31T05:13:10.294Z,4
2016-05-31T05:14:10.234Z,4
2016-05-31T05:15:10.441Z,4
2016-05-31T05:16:10.474Z,4
2016-05-31T05:17:10.524Z,4
2016-05-31T05:18:10.573Z,4
2016-05-31T05:19:10.655Z,4
2016-05-31T05:20:10.672Z,4
2016-05-31T05:21:10.753Z,4
2016-05-31T05:22:10.630Z,4
2016-05-31T05:23:11.071Z,4
2016-05-31T05:24:10.902Z,0
2016-05-31T05:25:10.967Z,4
2016-05-31T05:26:10.985Z,4
2016-05-31T05:27:11.051Z,4
2016-05-31T05:28:11.132Z,0
2016-05-31T05:29:11.009Z,0
2016-05-31T05:30:10.918Z,0
2016-05-31T05:31:11.296Z,0
2016-05-31T05:32:11.314Z,0
2016-05-31T05:33:11.395Z,0
2016-05-31T05:34:11.413Z,0
2016-05-31T05:35:11.510Z,0
2016-05-31T05:36:11.543Z,0
2016-05-31T05:37:11.593Z,4
2016-05-31T05:38:11.330Z,0
2016-05-31T05:39:11.583Z,4
2016-05-31T05:40:11.617Z,56
2016-05-31T05:41:11.806Z,60
2016-05-31T05:42:11.873Z,60
2016-05-31T05:43:11.797Z,60
2016-05-31T05:44:11.659Z,60
2016-05-31T05:45:12.036Z,56
2016-05-31T05:46:12.055Z,56
2016-05-31T05:47:11.964Z,56
2016-05-31T05:48:12.029Z,52
2016-05-31T05:49:12.078Z,52
2016-05-31T05:50:12.112Z,52
2016-05-31T05:51:12.194Z,44
2016-05-31T05:52:12.227Z,44
2016-05-31T05:53:12.338Z,48
2016-05-31T05:54:12.530Z,48
2016-05-31T05:55:12.548Z,44
2016-05-31T05:56:12.441Z,44
2016-05-31T05:57:12.671Z,40
2016-05-31T05:58:12.592Z,40
2016-05-31T05:59:12.886Z,40
2016-05-31T06:00:12.900Z,36
2016-05-31T06:01:12.975Z,36
2016-05-31T06:02:13.062Z,36
2016-05-31T06:03:13.152Z,36
2016-05-31T06:04:13.180Z,32
2016-05-31T06:05:13.255Z,36
2016-05-31T06:06:13.173Z,36
2016-05-31T06:07:13.371Z,32
2016-05-31T06:08:13.314Z,32
2016-05-31T06:09:13.509Z,32
2016-05-31T06:10:13.374Z,32
2016-05-31T06:11:13.443Z,28
2016-05-31T06:12:13.635Z,28
2016-05-31T06:13:13.732Z,28
2016-05-31T06:14:13.737Z,32
2016-05-31T06:15:13.663Z,28
2016-05-31T06:16:13.728Z,28
2016-05-31T06:17:13.936Z,28
2016-05-31T06:18:13.970Z,28
2016-05-31T06:19:14.035Z,24
2016-05-31T06:20:14.116Z,24
2016-05-31T06:21:14.151Z,20
2016-05-31T06:22:14.061Z,24
2016-05-31T06:23:14.594Z,24
2016-05-31T06:24:14.112Z,24
2016-05-31T06:25:14.335Z,24
2016-05-31T06:26:14.415Z,28
2016-05-31T06:27:14.308Z,28
2016-05-31T06:28:14.498Z,28
2016-05-31T06:29:14.579Z,20
2016-05-31T06:30:14.473Z,16
2016-05-31T06:31:14.662Z,16
2016-05-31T06:32:14.743Z,20
2016-05-31T06:33:14.636Z,16
2016-05-31T06:34:14.827Z,20
2016-05-31T06:35:14.876Z,20
2016-05-31T06:36:14.926Z,20
2016-05-31T06:37:14.991Z,20
2016-05-31T06:38:15.057Z,20
2016-05-31T06:39:15.075Z,16
2016-05-31T06:40:15.170Z,16
2016-05-31T06:41:15.189Z,20
2016-05-31T06:42:15.255Z,20
2016-05-31T06:43:15.304Z,16
2016-05-31T06:44:15.353Z,16
2016-05-31T06:45:15.231Z,16
2016-05-31T06:46:15.327Z,16
2016-05-31T06:47:15.362Z,16
2016-05-31T06:48:15.552Z,20
2016-05-31T06:49:15.633Z,20
2016-05-31T06:50:15.652Z,16
2016-05-31T06:51:15.747Z,16
2016-05-31T06:52:15.782Z,20
2016-05-31T06:53:15.830Z,20
2016-05-31T06:54:15.880Z,16
2016-05-31T06:55:15.946Z,20
2016-05-31T06:56:15.964Z,20
2016-05-31T06:57:16.045Z,20
2016-05-31T06:58:15.938Z,16
2016-05-31T06:59:16.191Z,20
2016-05-31T07:00:16.194Z,20
2016-05-31T07:01:16.259Z,20
2016-05-31T07:02:16.121Z,24
2016-05-31T07:03:16.389Z,20
2016-05-31T07:04:16.392Z,20
2016-05-31T07:05:16.301Z,24
2016-05-31T07:06:16.365Z,24
2016-05-31T07:07:16.556Z,28
2016-05-31T07:08:16.809Z,28
2016-05-31T07:09:16.687Z,32
2016-05-31T07:10:16.767Z,32
2016-05-31T07:11:16.598Z,36
2016-05-31T07:12:16.850Z,40
2016-05-31T07:13:16.901Z,40
2016-05-31T07:14:16.762Z,44
2016-05-31T07:15:17.000Z,48
2016-05-31T07:16:17.033Z,48
2016-05-31T07:17:17.114Z,48
2016-05-31T07:18:16.991Z,52
2016-05-31T07:19:17.230Z,52
2016-05-31T07:20:17.278Z,56
2016-05-31T07:21:17.328Z,56
2016-05-31T07:22:17.362Z,56
2016-05-31T07:23:17.475Z,64
2016-05-31T07:24:17.493Z,64
2016-05-31T07:25:17.510Z,68
2016-05-31T07:26:17.591Z,68
2016-05-31T07:27:17.610Z,68
2016-05-31T07:28:17.691Z,72
2016-05-31T07:29:17.584Z,28
2016-05-31T07:30:17.618Z,40
2016-05-31T07:31:17.840Z,32
2016-05-31T07:32:17.905Z,36
2016-05-31T07:33:17.954Z,64
2016-05-31T07:34:17.988Z,20
2016-05-31T07:35:18.053Z,28
2016-05-31T07:36:18.087Z,72
2016-05-31T07:37:18.168Z,72
2016-05-31T07:38:18.077Z,76
2016-05-31T07:39:18.267Z,20
2016-05-31T07:40:18.332Z,28
2016-05-31T07:41:18.367Z,28
2016-05-31T07:42:18.416Z,24
2016-05-31T07:43:18.481Z,72
2016-05-31T07:44:18.514Z,20
2016-05-31T07:45:18.581Z,16
2016-05-31T07:46:18.646Z,16
2016-05-31T07:47:18.695Z,16
2016-05-31T07:48:18.588Z,16
2016-05-31T07:49:18.669Z,8
2016-05-31T07:50:18.859Z,20
2016-05-31T07:51:18.800Z,16
2016-05-31T07:52:18.818Z,12
2016-05-31T07:53:19.055Z,24
2016-05-31T07:54:19.088Z,40
2016-05-31T07:55:19.108Z,16
2016-05-31T07:56:18.844Z,20
2016-05-31T07:57:19.222Z,20
2016-05-31T07:58:19.255Z,20
2016-05-31T07:59:19.352Z,44
2016-05-31T08:00:19.402Z,32
2016-05-31T08:01:19.264Z,56
2016-05-31T08:02:19.470Z,64
2016-05-31T08:03:19.565Z,20
2016-05-31T08:04:19.647Z,16
2016-05-31T08:05:19.322Z,12
2016-05-31T08:06:19.527Z,8
2016-05-31T08:07:19.764Z,8
2016-05-31T08:08:19.642Z,8
2016-05-31T08:09:19.722Z,12
2016-05-31T08:10:19.913Z,8
2016-05-31T08:11:19.963Z,12
2016-05-31T08:12:20.028Z,12
2016-05-31T08:13:20.077Z,16
2016-05-31T08:14:20.143Z,12
2016-05-31T08:15:20.005Z,16
2016-05-31T08:16:20.242Z,12
2016-05-31T08:17:20.135Z,16
2016-05-31T08:18:20.388Z,16
2016-05-31T08:19:20.358Z,20
2016-05-31T08:20:20.111Z,20
2016-05-31T08:21:20.349Z,28
2016-05-31T08:22:20.539Z,68
2016-05-31T08:23:20.822Z,64
2016-05-31T08:24:20.654Z,60
2016-05-31T08:25:20.703Z,56
2016-05-31T08:26:20.769Z,56
2016-05-31T08:27:20.865Z,56
2016-05-31T08:28:20.743Z,56
2016-05-31T08:29:20.948Z,56
2016-05-31T08:30:20.983Z,52
2016-05-31T08:31:20.860Z,16
2016-05-31T08:32:21.097Z,32
2016-05-31T08:33:21.131Z,12
2016-05-31T08:34:21.009Z,12
2016-05-31T08:35:21.262Z,16
2016-05-31T08:36:21.311Z,20
2016-05-31T08:37:21.190Z,24
2016-05-31T08:38:21.879Z,56
2016-05-31T08:39:21.460Z,24
2016-05-31T08:40:21.493Z,16
2016-05-31T08:41:21.559Z,44
2016-05-31T08:42:21.624Z,52
2016-05-31T08:43:21.486Z,16
2016-05-31T08:44:21.567Z,12
2016-05-31T08:45:21.773Z,8
2016-05-31T08:46:21.806Z,8
2016-05-31T08:47:21.872Z,8
2016-05-31T08:48:21.781Z,4
2016-05-31T08:49:22.081Z,4
2016-05-31T08:50:22.036Z,8
2016-05-31T08:51:22.086Z,8
2016-05-31T08:52:21.994Z,8
2016-05-31T08:53:22.872Z,8
2016-05-31T08:54:22.266Z,8
2016-05-31T08:55:22.284Z,4
2016-05-31T08:56:22.396Z,8
2016-05-31T08:57:22.539Z,8
2016-05-31T08:58:22.449Z,8
2016-05-31T08:59:22.576Z,8
2016-05-31T09:00:22.579Z,8
2016-05-31T09:01:22.597Z,8
2016-05-31T09:02:22.521Z,8
2016-05-31T09:03:22.727Z,8
2016-05-31T09:04:22.605Z,4
2016-05-31T09:05:22.670Z,4
2016-05-31T09:06:22.876Z,4
2016-05-31T09:07:22.770Z,4
2016-05-31T09:08:23.366Z,4
2016-05-31T09:09:23.071Z,4
2016-05-31T09:10:23.074Z,8
2016-05-31T09:11:23.155Z,4
2016-05-31T09:12:23.033Z,8
2016-05-31T09:13:23.239Z,8
2016-05-31T09:14:23.320Z,12
2016-05-31T09:15:23.634Z,12
2016-05-31T09:16:23.419Z,12
2016-05-31T09:17:23.467Z,12
2016-05-31T09:18:23.534Z,16
2016-05-31T09:19:23.552Z,16
2016-05-31T09:20:23.492Z,12
2016-05-31T09:21:23.682Z,16
2016-05-31T09:22:23.717Z,16
2016-05-31T09:23:23.968Z,20
2016-05-31T09:24:23.816Z,20
2016-05-31T09:25:23.911Z,20
2016-05-31T09:26:23.977Z,16
2016-05-31T09:27:23.588Z,16
2016-05-31T09:28:24.092Z,16
2016-05-31T09:29:24.094Z,16
2016-05-31T09:30:23.988Z,16
2016-05-31T09:31:24.084Z,16
2016-05-31T09:32:24.119Z,16
2016-05-31T09:33:24.151Z,20
2016-05-31T09:34:27.405Z,20
2016-05-31T09:35:24.438Z,24
2016-05-31T09:36:24.472Z,20
2016-05-31T09:37:24.538Z,20
2016-05-31T09:38:25.166Z,24
2016-05-31T09:39:24.496Z,20
2016-05-31T09:40:24.765Z,24
2016-05-31T09:41:24.579Z,24
2016-05-31T09:42:24.801Z,24
2016-05-31T09:43:24.866Z,44
2016-05-31T09:44:24.884Z,32
2016-05-31T09:45:24.934Z,28
2016-05-31T09:46:24.875Z,44
2016-05-31T09:47:25.017Z,36
2016-05-31T09:48:24.942Z,20
2016-05-31T09:49:25.179Z,44
2016-05-31T09:50:25.073Z,28
2016-05-31T09:51:25.122Z,20
2016-05-31T09:52:25.312Z,20
2016-05-31T09:53:25.424Z,28
2016-05-31T09:54:25.099Z,12
2016-05-31T09:55:25.492Z,12
2016-05-31T09:56:25.527Z,28
2016-05-31T09:57:25.591Z,12
2016-05-31T09:58:25.610Z,12
2016-05-31T09:59:25.752Z,16
2016-05-31T10:00:25.616Z,16
2016-05-31T10:01:25.805Z,16
2016-05-31T10:02:25.839Z,16
2016-05-31T10:03:25.904Z,16
2016-05-31T10:04:25.813Z,16
2016-05-31T10:05:25.831Z,16
2016-05-31T10:06:26.054Z,12
2016-05-31T10:07:26.681Z,12
2016-05-31T10:08:26.309Z,16
2016-05-31T10:09:26.232Z,16
2016-05-31T10:10:26.268Z,16
2016-05-31T10:11:26.317Z,16
2016-05-31T10:12:26.366Z,16
2016-05-31T10:13:26.431Z,16
2016-05-31T10:14:26.496Z,16
2016-05-31T10:15:26.545Z,16
2016-05-31T10:16:26.581Z,12
2016-05-31T10:17:26.661Z,16
2016-05-31T10:18:26.695Z,16
2016-05-31T10:19:26.588Z,20
2016-05-31T10:20:26.795Z,20
2016-05-31T10:21:26.859Z,20
2016-05-31T10:22:26.924Z,20
2016-05-31T10:23:26.959Z,24
2016-05-31T10:24:27.023Z,24
2016-05-31T10:25:27.072Z,16
2016-05-31T10:26:27.138Z,16
2016-05-31T10:27:27.203Z,16
2016-05-31T10:28:27.222Z,16
2016-05-31T10:29:27.302Z,16
2016-05-31T10:30:27.196Z,16
2016-05-31T10:31:27.386Z,16
2016-05-31T10:32:27.451Z,20
2016-05-31T10:33:27.344Z,16
2016-05-31T10:34:27.535Z,20
2016-05-31T10:35:27.568Z,20
2016-05-31T10:36:27.665Z,20
2016-05-31T10:37:27.699Z,16
2016-05-31T10:38:27.593Z,20
2016-05-31T10:39:27.798Z,20
2016-05-31T10:40:27.723Z,20
2016-05-31T10:41:27.913Z,20
2016-05-31T10:42:27.931Z,20
2016-05-31T10:43:27.903Z,20
2016-05-31T10:44:28.077Z,20
2016-05-31T10:45:28.142Z,20
2016-05-31T10:46:28.176Z,20
2016-05-31T10:47:28.242Z,20
2016-05-31T10:48:28.119Z,16
2016-05-31T10:49:28.451Z,20
2016-05-31T10:50:28.406Z,16
2016-05-31T10:51:28.300Z,20
2016-05-31T10:52:28.567Z,20
2016-05-31T10:53:29.413Z,16
2016-05-31T10:54:28.589Z,16
2016-05-31T10:55:28.685Z,12
2016-05-31T10:56:28.563Z,12
2016-05-31T10:57:28.753Z,16
2016-05-31T10:58:28.818Z,12
2016-05-31T10:59:28.914Z,16
2016-05-31T11:00:28.917Z,12
2016-05-31T11:01:28.966Z,12
2016-05-31T11:02:29.032Z,12
2016-05-31T11:03:29.066Z,12
2016-05-31T11:04:28.974Z,16
2016-05-31T11:05:29.165Z,16
2016-05-31T11:06:29.090Z,12
2016-05-31T11:07:30.513Z,16
2016-05-31T11:08:29.814Z,16
2016-05-31T11:09:29.410Z,20
2016-05-31T11:10:29.475Z,16
2016-05-31T11:11:29.509Z,16
2016-05-31T11:12:29.559Z,20
2016-05-31T11:13:29.623Z,16
2016-05-31T11:14:29.643Z,20
2016-05-31T11:15:29.567Z,16
2016-05-31T11:16:29.788Z,16
2016-05-31T11:17:29.666Z,16
2016-05-31T11:18:29.856Z,20
2016-05-31T11:19:29.921Z,16
2016-05-31T11:20:30.002Z,16
2016-05-31T11:21:30.020Z,20
2016-05-31T11:22:29.929Z,20
2016-05-31T11:23:30.354Z,20
2016-05-31T11:24:30.200Z,16
2016-05-31T11:25:30.234Z,16
2016-05-31T11:26:30.159Z,20
2016-05-31T11:27:30.349Z,20
2016-05-31T11:28:30.383Z,20
2016-05-31T11:29:30.292Z,20
2016-05-31T11:30:30.497Z,20
2016-05-31T11:31:30.578Z,16
2016-05-31T11:32:30.596Z,20
2016-05-31T11:33:30.694Z,20
2016-05-31T11:34:30.743Z,24
2016-05-31T11:35:30.777Z,20
2016-05-31T11:36:30.841Z,16
2016-05-31T11:37:30.751Z,16
2016-05-31T11:38:31.065Z,20
2016-05-31T11:39:30.974Z,16
2016-05-31T11:40:30.900Z,16
2016-05-31T11:41:30.918Z,12
2016-05-31T11:42:31.139Z,12
2016-05-31T11:43:31.190Z,16
2016-05-31T11:44:31.270Z,16
2016-05-31T11:45:31.148Z,16
2016-05-31T11:46:31.369Z,16
2016-05-31T11:47:31.278Z,16
2016-05-31T11:48:31.467Z,12
2016-05-31T11:49:31.501Z,12
2016-05-31T11:50:31.583Z,16
2016-05-31T11:51:31.617Z,12
2016-05-31T11:52:31.667Z,12
2016-05-31T11:53:31.419Z,16
2016-05-31T11:54:31.797Z,16
2016-05-31T11:55:31.814Z,16
2016-05-31T11:56:31.911Z,16
2016-05-31T11:57:31.945Z,16
2016-05-31T11:58:32.011Z,12
2016-05-31T11:59:32.122Z,16
2016-05-31T12:00:32.094Z,16
2016-05-31T12:01:32.158Z,16
2016-05-31T12:02:32.208Z,16
2016-05-31T12:03:32.103Z,16
2016-05-31T12:04:32.152Z,12
2016-05-31T12:05:32.374Z,12
2016-05-31T12:06:32.407Z,16
2016-05-31T12:07:32.456Z,16
2016-05-31T12:08:32.538Z,16
2016-05-31T12:09:32.556Z,16
2016-05-31T12:10:32.652Z,16
2016-05-31T12:11:32.515Z,16
2016-05-31T12:12:32.751Z,16
2016-05-31T12:13:32.801Z,16
2016-05-31T12:14:32.554Z,12
2016-05-31T12:15:32.884Z,16
2016-05-31T12:16:32.965Z,16
2016-05-31T12:17:32.999Z,16
2016-05-31T12:18:33.064Z,16
2016-05-31T12:19:33.098Z,16
2016-05-31T12:20:33.007Z,16
2016-05-31T12:21:33.213Z,20
2016-05-31T12:22:33.279Z,20
2016-05-31T12:23:34.187Z,16
2016-05-31T12:24:33.377Z,20
2016-05-31T12:25:33.442Z,16
2016-05-31T12:26:33.508Z,20
2016-05-31T12:27:33.526Z,16
2016-05-31T12:28:33.591Z,16
2016-05-31T12:29:33.609Z,12
2016-05-31T12:30:33.519Z,12
2016-05-31T12:31:33.599Z,12
2016-05-31T12:32:33.649Z,12
2016-05-31T12:33:33.838Z,16
2016-05-31T12:34:33.763Z,16
2016-05-31T12:35:33.954Z,16
2016-05-31T12:36:33.863Z,16
2016-05-31T12:37:34.303Z,16
2016-05-31T12:38:33.993Z,16
2016-05-31T12:39:34.168Z,16
2016-05-31T12:40:34.201Z,16
2016-05-31T12:41:33.938Z,16
2016-05-31T12:42:34.332Z,16
2016-05-31T12:43:34.101Z,20
2016-05-31T12:44:34.415Z,16
2016-05-31T12:45:34.496Z,16
2016-05-31T12:46:34.358Z,16
2016-05-31T12:47:34.611Z,16
2016-05-31T12:48:34.646Z,16
2016-05-31T12:49:34.710Z,16
2016-05-31T12:50:34.745Z,16
2016-05-31T12:51:35.122Z,16
2016-05-31T12:52:34.937Z,16
2016-05-31T12:53:35.377Z,16
2016-05-31T12:54:34.942Z,12
2016-05-31T12:55:34.992Z,16
2016-05-31T12:56:35.089Z,16
2016-05-31T12:57:35.153Z,12
2016-05-31T12:58:35.172Z,12
2016-05-31T12:59:35.284Z,12
2016-05-31T13:00:35.271Z,12
2016-05-31T13:01:35.195Z,12
2016-05-31T13:02:35.089Z,12
2016-05-31T13:03:35.264Z,16
2016-05-31T13:04:35.516Z,20
2016-05-31T13:05:35.550Z,16
2016-05-31T13:06:35.583Z,12
2016-05-31T13:07:35.650Z,12
2016-05-31T13:08:35.761Z,12
2016-05-31T13:09:35.749Z,16
2016-05-31T13:10:35.798Z,12
2016-05-31T13:11:35.847Z,16
2016-05-31T13:12:35.896Z,16
2016-05-31T13:13:36.009Z,16
2016-05-31T13:14:35.887Z,16
2016-05-31T13:15:36.077Z,12
2016-05-31T13:16:36.142Z,16
2016-05-31T13:17:36.192Z,16
2016-05-31T13:18:36.070Z,16
2016-05-31T13:19:36.275Z,16
2016-05-31T13:20:36.200Z,16
2016-05-31T13:21:36.234Z,16
2016-05-31T13:22:36.987Z,12
2016-05-31T13:23:36.379Z,16
2016-05-31T13:24:36.570Z,16
2016-05-31T13:25:36.619Z,16
2016-05-31T13:26:36.701Z,20
2016-05-31T13:27:36.703Z,20
2016-05-31T13:28:36.783Z,20
2016-05-31T13:29:36.834Z,16
2016-05-31T13:30:36.867Z,20
2016-05-31T13:31:36.947Z,20
2016-05-31T13:32:36.826Z,20
2016-05-31T13:33:36.860Z,20
2016-05-31T13:34:37.081Z,16
2016-05-31T13:35:37.177Z,16
2016-05-31T13:36:37.039Z,16
2016-05-31T13:37:37.605Z,20
2016-05-31T13:38:37.716Z,16
2016-05-31T13:39:37.360Z,20
2016-05-31T13:40:37.269Z,20
2016-05-31T13:41:37.459Z,16
2016-05-31T13:42:37.338Z,16
2016-05-31T13:43:37.652Z,20
2016-05-31T13:44:37.671Z,20
2016-05-31T13:45:37.658Z,20
2016-05-31T13:46:37.738Z,16
2016-05-31T13:47:39.615Z,16
2016-05-31T13:48:38.681Z,16
2016-05-31T13:49:37.747Z,12
2016-05-31T13:50:37.952Z,8
2016-05-31T13:51:37.830Z,12
2016-05-31T13:52:37.879Z,12
2016-05-31T13:53:37.976Z,8
2016-05-31T13:54:38.167Z,8
2016-05-31T13:55:38.028Z,8
2016-05-31T13:56:38.250Z,8
2016-05-31T13:57:38.331Z,12
2016-05-31T13:58:38.192Z,8
2016-05-31T13:59:38.461Z,8
2016-05-31T14:00:38.338Z,8
2016-05-31T14:01:38.529Z,8
2016-05-31T14:02:38.578Z,8
2016-05-31T14:03:38.346Z,4
2016-05-31T14:04:38.522Z,4
2016-05-31T14:05:38.900Z,4
2016-05-31T14:06:38.792Z,4
2016-05-31T14:07:39.092Z,8
2016-05-31T14:08:39.625Z,8
2016-05-31T14:09:38.957Z,8
2016-05-31T14:10:39.021Z,8
2016-05-31T14:11:39.055Z,8
2016-05-31T14:12:39.105Z,12
2016-05-31T14:13:39.202Z,8
2016-05-31T14:14:39.220Z,16
2016-05-31T14:15:39.301Z,16
2016-05-31T14:16:39.304Z,8
2016-05-31T14:17:39.368Z,8
2016-05-31T14:18:39.277Z,8
2016-05-31T14:19:39.498Z,12
2016-05-31T14:20:39.502Z,16
2016-05-31T14:21:39.410Z,16
2016-05-31T14:22:40.117Z,12
2016-05-31T14:23:39.698Z,8
2016-05-31T14:24:39.731Z,8
2016-05-31T14:25:39.796Z,12
2016-05-31T14:26:39.830Z,4
2016-05-31T14:27:39.880Z,4
2016-05-31T14:28:39.945Z,8
2016-05-31T14:29:39.995Z,8
2016-05-31T14:30:40.044Z,16